Time;durP1;ratioP1;P1;durP2;ratioP2;P2;SDS_P1;SDS_P2;PMS_P1;PMS_P2;Temp;Humidity;BMP_temperature;BMP_pressure;BME280_temperature;BME280_humidity;BME280_pressure;Samples;Min_cycle;Max_cycle;Signal;HPM_P1;HPM_P2
2022/03/30 00:01:29;;;;;;;35.35;17.90;;;11.60;99.90;;;;;;5000218;28;20395;-51
2022/03/30 00:03:56;;;;;;;35.83;18.50;;;11.30;99.90;;;;;;5004165;28;20397;-53
2022/03/30 00:06:22;;;;;;;31.67;18.70;;;11.00;99.90;;;;;;5000301;28;20819;-53
2022/03/30 00:08:48;;;;;;;33.50;18.65;;;10.90;99.90;;;;;;4985754;28;20417;-52
2022/03/30 00:11:14;;;;;;;33.60;18.23;;;10.90;99.90;;;;;;5008042;28;20572;-53
2022/03/30 00:13:40;;;;;;;32.45;19.05;;;11.00;99.90;;;;;;5008976;28;20811;-53
2022/03/30 00:16:09;;;;;;;32.83;18.42;;;11.00;99.90;;;;;;5005775;28;20393;-53
2022/03/30 00:18:36;;;;;;;33.08;18.27;;;11.10;99.90;;;;;;5004262;28;20457;-53
2022/03/30 00:21:04;;;;;;;34.60;18.17;;;11.00;99.90;;;;;;5007470;28;20400;-53
2022/03/30 00:23:29;;;;;;;35.58;18.83;;;11.00;99.90;;;;;;5003240;28;20471;-53
2022/03/30 00:25:56;;;;;;;29.83;18.70;;;11.00;99.90;;;;;;5005640;28;20435;-54
2022/03/30 00:28:23;;;;;;;31.88;17.95;;;11.20;99.90;;;;;;5002675;28;20394;-53
2022/03/30 00:30:49;;;;;;;33.60;19.13;;;11.20;99.90;;;;;;5003866;28;20413;-50
2022/03/30 00:33:15;;;;;;;31.83;18.88;;;11.40;99.90;;;;;;5004573;28;20481;-51
2022/03/30 00:35:41;;;;;;;33.90;19.13;;;11.50;99.90;;;;;;5009011;28;20785;-51
2022/03/30 00:38:07;;;;;;;32.53;18.73;;;11.60;99.90;;;;;;5004569;28;20385;-51
2022/03/30 00:40:32;;;;;;;33.40;19.08;;;11.60;99.90;;;;;;5005846;28;20435;-51
2022/03/30 00:42:58;;;;;;;33.53;19.40;;;11.60;99.90;;;;;;5000438;28;20444;-51
2022/03/30 00:45:24;;;;;;;31.90;18.20;;;11.60;99.90;;;;;;5003720;28;21324;-51
2022/03/30 00:47:51;;;;;;;30.92;18.55;;;11.60;99.90;;;;;;4986729;28;20817;-50
2022/03/30 00:50:20;;;;;;;35.13;18.88;;;11.50;99.90;;;;;;5001174;28;20417;-51
2022/03/30 00:52:47;;;;;;;34.05;18.60;;;11.40;99.90;;;;;;5004795;28;20478;-53
2022/03/30 00:55:16;;;;;;;39.42;18.80;;;11.10;99.90;;;;;;5003862;28;20412;-54
2022/03/30 00:57:42;;;;;;;35.30;18.65;;;10.90;1.00;;;;;;5003850;28;20393;-54
2022/03/30 01:00:12;;;;;;;34.83;18.23;;;10.90;1.00;;;;;;4999851;28;20405;-54
2022/03/30 01:02:39;;;;;;;34.03;19.15;;;11.00;1.00;;;;;;5006882;28;20885;-53
2022/03/30 01:05:06;;;;;;;33.70;19.30;;;11.10;99.90;;;;;;4989358;28;20392;-53
2022/03/30 01:07:32;;;;;;;34.67;18.95;;;11.10;99.90;;;;;;5007260;28;20389;-52
2022/03/30 01:09:57;;;;;;;34.20;18.05;;;11.20;99.90;;;;;;5007064;28;20417;-51
2022/03/30 01:12:25;;;;;;;36.20;19.50;;;11.40;99.90;;;;;;5003934;28;20408;-51
2022/03/30 01:14:52;;;;;;;31.65;18.50;;;11.50;99.90;;;;;;4986624;28;20431;-50
2022/03/30 01:17:19;;;;;;;36.30;19.33;;;11.70;99.90;;;;;;5003696;28;20413;-51
2022/03/30 01:19:45;;;;;;;33.35;19.40;;;11.70;99.90;;;;;;5009788;28;20510;-51
2022/03/30 01:22:11;;;;;;;31.33;18.90;;;11.70;99.90;;;;;;5008911;28;20534;-51
2022/03/30 01:24:38;;;;;;;38.30;19.15;;;11.80;99.90;;;;;;4992600;28;20411;-51
2022/03/30 01:27:04;;;;;;;33.88;19.38;;;11.70;99.90;;;;;;5009277;28;20381;-51
2022/03/30 01:32:27;;;;;;;34.95;19.00;;;11.40;99.90;;;;;;4995433;28;20386;-51
2022/03/30 01:34:54;;;;;;;29.92;18.20;;;11.30;1.00;;;;;;4989947;28;20473;-51
2022/03/30 01:37:20;;;;;;;29.08;18.40;;;11.40;99.90;;;;;;5000451;28;20802;-51
2022/03/30 01:39:46;;;;;;;35.13;19.30;;;11.60;99.90;;;;;;5010044;28;20412;-51
2022/03/30 01:42:12;;;;;;;34.35;18.40;;;11.70;99.90;;;;;;5009599;28;20895;-51
2022/03/30 01:44:39;;;;;;;35.38;19.45;;;11.70;99.90;;;;;;5010163;28;20519;-51
2022/03/30 01:47:05;;;;;;;32.38;18.58;;;11.70;99.90;;;;;;5009555;28;20403;-51
2022/03/30 01:49:31;;;;;;;32.17;18.97;;;11.70;99.90;;;;;;5003478;28;20495;-51
2022/03/30 01:51:59;;;;;;;31.60;17.75;;;11.80;99.90;;;;;;4998632;28;20413;-51
2022/03/30 01:54:27;;;;;;;31.73;18.60;;;11.90;99.90;;;;;;5009463;28;20412;-51
2022/03/30 01:56:55;;;;;;;33.90;17.20;;;11.90;99.90;;;;;;5009056;28;20417;-50
2022/03/30 01:59:23;;;;;;;30.60;18.17;;;11.90;99.90;;;;;;4992282;28;20487;-51
2022/03/30 02:01:48;;;;;;;29.27;18.35;;;12.00;99.90;;;;;;5009619;28;20384;-50
2022/03/30 02:04:16;;;;;;;33.00;18.87;;;12.10;99.90;;;;;;5008882;28;20400;-51
2022/03/30 02:06:42;;;;;;;33.85;18.70;;;12.20;99.90;;;;;;5009393;28;20439;-50
2022/03/30 02:09:09;;;;;;;38.28;18.55;;;12.20;99.90;;;;;;5004099;28;20538;-52
2022/03/30 02:11:35;;;;;;;32.97;18.80;;;12.20;99.90;;;;;;4990071;28;20930;-51
2022/03/30 02:14:01;;;;;;;30.63;18.30;;;12.30;99.90;;;;;;4992486;28;20899;-51
2022/03/30 02:16:28;;;;;;;36.97;20.50;;;12.30;99.90;;;;;;4994315;28;20382;-51
2022/03/30 02:18:54;;;;;;;31.88;18.27;;;12.40;1.00;;;;;;5012287;28;20502;-51
2022/03/30 02:21:21;;;;;;;34.17;19.23;;;12.40;1.00;;;;;;4995884;28;20413;-51
2022/03/30 02:23:47;;;;;;;34.22;19.40;;;12.50;1.00;;;;;;5013615;28;20463;-51
2022/03/30 02:26:15;;;;;;;37.17;19.50;;;12.50;1.00;;;;;;5013541;28;20449;-51
2022/03/30 02:28:43;;;;;;;32.25;19.10;;;12.40;1.00;;;;;;5013682;28;20400;-51
2022/03/30 02:31:11;;;;;;;36.00;19.83;;;12.30;1.00;;;;;;5012526;28;20420;-51
2022/03/30 02:33:39;;;;;;;34.53;20.17;;;12.30;1.00;;;;;;5013062;28;20423;-51
2022/03/30 02:36:06;;;;;;;34.40;19.20;;;12.40;1.00;;;;;;5012368;28;20468;-51
2022/03/30 02:38:31;;;;;;;29.48;19.27;;;12.30;1.00;;;;;;5013511;28;20395;-51
2022/03/30 02:40:57;;;;;;;39.13;20.37;;;12.10;1.00;;;;;;4995189;28;20392;-52
2022/03/30 02:43:24;;;;;;;37.28;20.20;;;12.10;16.50;;;;;;5013363;28;20407;-51
2022/03/30 02:45:50;;;;;;;40.88;19.70;;;12.10;1.00;;;;;;5005558;28;20427;-51
2022/03/30 02:48:21;;;;;;;32.60;19.30;;;12.10;1.00;;;;;;4993593;28;20387;-51
2022/03/30 02:50:51;;;;;;;30.52;18.65;;;12.00;1.00;;;;;;4997167;28;20406;-52
2022/03/30 02:53:20;;;;;;;30.63;19.50;;;12.00;1.00;;;;;;5013262;28;20417;-51
2022/03/30 02:55:47;;;;;;;33.22;20.42;;;12.00;1.00;;;;;;5013303;28;20372;-51
2022/03/30 02:58:14;;;;;;;36.40;20.45;;;12.00;1.00;;;;;;5011975;28;20381;-51
2022/03/30 03:00:42;;;;;;;34.38;19.20;;;12.10;1.00;;;;;;5013423;28;20389;-51
2022/03/30 03:03:09;;;;;;;32.95;19.35;;;12.20;1.00;;;;;;5008495;28;20385;-52
2022/03/30 03:05:36;;;;;;;33.50;19.50;;;12.30;1.00;;;;;;4995817;28;20441;-52
2022/03/30 03:08:05;;;;;;;33.60;19.23;;;13.50;1.00;;;;;;4992589;28;20389;-51
2022/03/30 03:10:34;;;;;;;32.08;20.00;;;12.30;1.00;;;;;;4993384;28;20441;-52
2022/03/30 03:13:03;;;;;;;32.10;19.00;;;12.40;1.00;;;;;;4992477;28;20391;-52
2022/03/30 03:15:31;;;;;;;33.95;19.45;;;12.30;1.00;;;;;;5005991;28;20392;-52
2022/03/30 03:17:57;;;;;;;33.10;19.20;;;12.20;1.00;;;;;;5012274;28;20416;-51
2022/03/30 03:20:24;;;;;;;33.15;19.60;;;12.10;1.00;;;;;;5005574;28;20430;-52
2022/03/30 03:22:50;;;;;;;33.92;19.88;;;11.80;1.00;;;;;;4999093;28;20947;-50
2022/03/30 03:25:16;;;;;;;33.53;19.30;;;11.70;1.00;;;;;;4991688;28;20578;-51
2022/03/30 03:27:41;;;;;;;35.00;19.85;;;11.60;1.00;;;;;;4992263;28;20485;-52
2022/03/30 03:30:08;;;;;;;38.87;21.23;;;11.50;1.00;;;;;;4991323;28;20390;-51
2022/03/30 03:32:34;;;;;;;40.10;21.30;;;11.40;31.60;;;;;;5012137;28;20392;-51
2022/03/30 03:35:00;;;;;;;31.98;19.85;;;11.40;44.90;;;;;;5009433;28;20385;-51
2022/03/30 03:37:25;;;;;;;36.45;21.00;;;11.50;13.00;;;;;;4984600;28;20430;-51
2022/03/30 03:39:51;;;;;;;32.83;20.10;;;11.60;1.00;;;;;;4991854;28;20410;-51
2022/03/30 03:42:17;;;;;;;40.03;21.50;;;11.60;1.00;;;;;;4991788;28;20425;-51
2022/03/30 03:44:43;;;;;;;35.47;20.67;;;11.70;1.00;;;;;;4990992;28;20437;-51
2022/03/30 03:47:09;;;;;;;36.17;21.07;;;11.80;1.00;;;;;;4990237;28;20402;-51
2022/03/30 03:49:37;;;;;;;33.15;20.08;;;11.70;1.00;;;;;;4992011;28;20394;-51
2022/03/30 03:52:04;;;;;;;35.90;20.30;;;11.60;43.50;;;;;;4990876;28;20466;-51
2022/03/30 03:54:30;;;;;;;33.03;18.85;;;11.50;5.80;;;;;;5000115;28;20736;-52
2022/03/30 03:56:55;;;;;;;37.47;21.15;;;11.60;1.00;;;;;;4992728;28;20553;-51
2022/03/30 03:59:21;;;;;;;35.20;20.10;;;11.70;1.00;;;;;;4974750;28;20403;-51
2022/03/30 04:01:47;;;;;;;40.20;21.42;;;11.70;59.40;;;;;;4992506;28;20395;-51
2022/03/30 04:04:12;;;;;;;37.33;20.97;;;11.70;99.90;;;;;;4990893;28;20383;-51
2022/03/30 04:06:38;;;;;;;34.90;20.13;;;11.60;39.10;;;;;;4992101;28;20382;-52
2022/03/30 04:09:04;;;;;;;33.60;20.23;;;11.60;99.90;;;;;;4973721;28;20457;-51
2022/03/30 04:11:29;;;;;;;37.05;20.23;;;11.60;99.90;;;;;;4992120;28;20453;-51
2022/03/30 04:13:55;;;;;;;31.60;18.80;;;11.50;47.10;;;;;;4991256;28;20405;-50
2022/03/30 04:16:21;;;;;;;36.25;20.77;;;11.50;15.00;;;;;;4990437;28;20428;-51
2022/03/30 04:18:47;;;;;;;34.23;18.53;;;11.60;1.00;;;;;;4991169;28;20543;-51
2022/03/30 04:21:13;;;;;;;35.22;20.10;;;11.60;1.00;;;;;;4990611;28;20601;-51
2022/03/30 04:23:38;;;;;;;35.90;20.07;;;11.70;99.90;;;;;;4991917;28;20406;-52
2022/03/30 04:26:04;;;;;;;35.75;21.17;;;11.70;1.00;;;;;;4996263;28;20408;-51
2022/03/30 04:28:30;;;;;;;32.23;19.77;;;11.80;99.90;;;;;;4997140;28;20864;-51
2022/03/30 04:30:56;;;;;;;36.70;20.77;;;11.80;99.90;;;;;;4990926;28;20390;-51
2022/03/30 04:33:22;;;;;;;34.80;20.48;;;11.70;1.00;;;;;;4990741;28;20394;-52
2022/03/30 04:35:48;;;;;;;35.17;21.27;;;11.20;1.00;;;;;;4990495;28;20391;-51
2022/03/30 04:38:14;;;;;;;36.50;21.00;;;11.70;99.90;;;;;;4989121;28;20936;-51
2022/03/30 04:40:40;;;;;;;35.15;20.35;;;11.60;1.00;;;;;;4991147;28;20430;-51
2022/03/30 04:43:07;;;;;;;35.53;20.13;;;11.60;99.90;;;;;;4990592;28;20395;-51
2022/03/30 04:45:33;;;;;;;35.10;19.52;;;11.50;99.90;;;;;;4991266;28;20828;-51
2022/03/30 04:47:59;;;;;;;33.47;19.52;;;11.30;99.90;;;;;;4990436;28;20502;-51
2022/03/30 04:50:26;;;;;;;35.28;20.10;;;11.30;1.00;;;;;;4973213;28;20425;-51
2022/03/30 04:52:52;;;;;;;39.83;20.90;;;11.10;1.00;;;;;;4989594;28;20402;-52
2022/03/30 04:55:19;;;;;;;34.58;19.45;;;11.10;99.90;;;;;;4990617;28;20859;-53
2022/03/30 04:57:45;;;;;;;41.80;20.80;;;11.00;1.00;;;;;;4994389;28;20451;-53
2022/03/30 05:00:11;;;;;;;39.37;20.80;;;10.90;92.40;;;;;;5001858;28;20425;-54
2022/03/30 05:02:38;;;;;;;34.92;19.88;;;10.80;99.90;;;;;;4991029;28;20868;-53
2022/03/30 05:05:05;;;;;;;34.55;18.70;;;10.70;99.90;;;;;;4990481;28;20531;-53
2022/03/30 05:07:31;;;;;;;34.78;20.05;;;10.40;99.90;;;;;;4974006;28;20387;-54
2022/03/30 05:10:00;;;;;;;36.65;19.38;;;10.30;99.90;;;;;;4995760;28;20893;-53
2022/03/30 05:12:26;;;;;;;42.28;19.92;;;10.30;1.00;;;;;;4993884;28;20394;-53
2022/03/30 05:14:52;;;;;;;41.00;19.85;;;10.20;43.50;;;;;;5000311;28;20401;-53
2022/03/30 05:17:18;;;;;;;37.47;20.20;;;10.20;99.90;;;;;;5000846;28;20398;-54
2022/03/30 05:19:46;;;;;;;39.03;19.60;;;10.20;99.90;;;;;;5000911;28;20486;-53
2022/03/30 05:22:12;;;;;;;37.60;20.83;;;10.10;99.90;;;;;;4998952;28;20588;-53
2022/03/30 05:24:38;;;;;;;39.67;20.58;;;10.20;99.90;;;;;;5001784;28;20885;-53
2022/03/30 05:27:04;;;;;;;42.25;20.80;;;10.20;1.00;;;;;;5009713;28;20384;-54
2022/03/30 05:29:30;;;;;;;41.08;20.15;;;10.30;1.00;;;;;;5010624;28;20388;-52
2022/03/30 05:31:56;;;;;;;36.75;19.70;;;10.40;1.00;;;;;;5009444;28;20392;-53
2022/03/30 05:34:22;;;;;;;38.85;20.90;;;10.40;1.00;;;;;;5001534;28;20464;-53
2022/03/30 05:36:48;;;;;;;38.87;18.80;;;10.40;1.00;;;;;;5002931;28;20384;-54
2022/03/30 05:39:14;;;;;;;36.38;18.75;;;10.40;1.00;;;;;;5003182;28;20535;-53
2022/03/30 05:41:40;;;;;;;41.78;19.55;;;10.40;1.00;;;;;;4990761;28;20953;-54
2022/03/30 05:44:05;;;;;;;38.27;19.70;;;10.40;1.00;;;;;;4972514;28;20391;-54
2022/03/30 05:46:31;;;;;;;38.42;19.92;;;10.40;1.00;;;;;;5003198;28;20749;-54
2022/03/30 05:48:57;;;;;;;37.13;19.70;;;10.50;1.00;;;;;;5005243;28;20409;-53
2022/03/30 05:51:23;;;;;;;36.45;19.88;;;10.60;1.00;;;;;;5008020;28;20388;-54
2022/03/30 05:53:49;;;;;;;39.80;19.67;;;10.70;1.00;;;;;;5010205;28;20550;-54
2022/03/30 05:56:15;;;;;;;36.47;20.13;;;10.70;1.00;;;;;;5007257;28;21085;-53
2022/03/30 05:58:41;;;;;;;38.00;18.92;;;10.70;1.00;;;;;;5006726;28;20408;-53
2022/03/30 06:01:07;;;;;;;39.13;19.93;;;10.70;1.00;;;;;;5008104;28;20397;-54
2022/03/30 06:03:37;;;;;;;41.67;19.05;;;10.70;1.00;;;;;;5007799;28;20444;-53
2022/03/30 06:06:06;;;;;;;34.70;19.10;;;10.80;1.00;;;;;;5003836;28;20867;-53
2022/03/30 06:08:34;;;;;;;41.95;19.58;;;10.80;1.00;;;;;;5010233;28;20870;-54
2022/03/30 06:11:00;;;;;;;33.25;19.00;;;10.90;1.00;;;;;;5008292;28;20396;-54
2022/03/30 06:13:25;;;;;;;37.90;19.67;;;11.00;1.00;;;;;;5010084;28;20388;-52
2022/03/30 06:15:51;;;;;;;38.97;20.10;;;11.00;1.00;;;;;;5009006;28;20890;-51
2022/03/30 06:18:17;;;;;;;35.10;19.50;;;11.10;1.00;;;;;;5006203;28;20928;-53
2022/03/30 06:20:42;;;;;;;38.08;20.23;;;11.20;1.00;;;;;;5008488;28;21948;-52
2022/03/30 06:23:08;;;;;;;31.83;19.75;;;11.30;1.00;;;;;;5008077;28;20395;-51
2022/03/30 06:25:34;;;;;;;35.17;19.47;;;11.30;1.00;;;;;;5009033;28;20415;-52
2022/03/30 06:28:00;;;;;;;37.20;21.75;;;11.30;1.00;;;;;;5008698;28;20385;-51
2022/03/30 06:30:26;;;;;;;37.67;21.30;;;11.20;1.00;;;;;;5008828;28;20498;-51
2022/03/30 06:32:52;;;;;;;35.72;20.60;;;11.10;1.00;;;;;;5007151;28;20482;-51
2022/03/30 06:35:19;;;;;;;38.35;21.17;;;11.10;1.00;;;;;;5008120;28;20389;-51
2022/03/30 06:37:46;;;;;;;35.05;19.20;;;11.00;1.00;;;;;;5009068;28;20454;-54
2022/03/30 06:40:14;;;;;;;38.28;19.48;;;11.00;1.00;;;;;;5008361;28;20517;-51
2022/03/30 06:42:40;;;;;;;40.92;21.70;;;11.10;1.00;;;;;;5009524;28;20443;-51
2022/03/30 06:45:07;;;;;;;35.58;21.88;;;11.10;1.00;;;;;;5001653;28;20952;-52
2022/03/30 06:47:33;;;;;;;39.50;21.95;;;11.10;1.00;;;;;;5008366;28;20471;-52
2022/03/30 06:49:59;;;;;;;40.83;21.38;;;11.00;1.00;;;;;;5007989;28;20407;-53
2022/03/30 06:52:26;;;;;;;37.85;21.33;;;11.00;1.00;;;;;;4990900;28;20480;-53
2022/03/30 06:54:52;;;;;;;37.95;21.25;;;11.10;1.00;;;;;;5005880;28;20426;-51
2022/03/30 06:57:20;;;;;;;34.08;20.77;;;11.10;1.00;;;;;;5008247;28;20460;-51
2022/03/30 06:59:46;;;;;;;36.83;21.38;;;11.20;1.00;;;;;;5007301;28;20448;-51
2022/03/30 07:02:11;;;;;;;46.60;22.10;;;11.20;1.00;;;;;;5012101;28;20871;-54
2022/03/30 07:04:38;;;;;;;35.70;20.70;;;11.20;1.00;;;;;;5012050;28;20427;-54
2022/03/30 07:12:34;;;;;;;38.15;20.83;;;11.20;1.00;;;;;;5010293;28;20458;-51
2022/03/30 07:15:01;;;;;;;38.20;19.00;;;11.20;1.00;;;;;;5010483;28;20381;-50
2022/03/30 07:17:27;;;;;;;38.13;19.35;;;11.10;1.00;;;;;;5011799;28;20389;-51
2022/03/30 07:19:53;;;;;;;38.53;19.83;;;11.10;1.00;;;;;;5011447;28;20432;-51
2022/03/30 07:22:19;;;;;;;40.15;20.45;;;11.00;1.00;;;;;;5009583;28;20925;-53
2022/03/30 07:24:44;;;;;;;37.03;19.53;;;11.00;1.00;;;;;;5012398;28;20779;-52
2022/03/30 07:27:10;;;;;;;35.55;19.70;;;11.10;1.00;;;;;;5011318;28;20473;-51
2022/03/30 07:29:36;;;;;;;36.50;19.70;;;11.10;1.00;;;;;;5012249;28;20385;-51
2022/03/30 07:32:02;;;;;;;38.33;19.70;;;11.70;1.00;;;;;;5010801;28;20379;-51
2022/03/30 07:34:29;;;;;;;31.58;18.50;;;11.10;1.00;;;;;;5012038;28;20421;-54
2022/03/30 07:36:55;;;;;;;34.45;19.60;;;11.00;1.00;;;;;;5011390;28;20385;-53
2022/03/30 07:39:21;;;;;;;35.58;19.58;;;10.90;1.00;;;;;;4993930;28;20763;-54
2022/03/30 07:41:47;;;;;;;35.15;19.00;;;10.90;1.00;;;;;;5010779;28;20459;-54
2022/03/30 07:44:13;;;;;;;39.40;18.23;;;10.80;1.00;;;;;;5011063;28;20385;-53
2022/03/30 07:46:38;;;;;;;36.78;18.25;;;10.90;1.00;;;;;;5011936;28;20422;-54
2022/03/30 07:49:04;;;;;;;41.50;20.20;;;10.90;1.00;;;;;;5010871;28;20393;-53
2022/03/30 07:51:30;;;;;;;34.90;18.70;;;11.00;1.00;;;;;;5011762;28;20415;-53
2022/03/30 07:53:56;;;;;;;44.60;20.67;;;10.90;1.00;;;;;;5011488;28;20401;-53
2022/03/30 07:56:22;;;;;;;32.95;18.83;;;11.00;1.00;;;;;;5011120;28;20395;-51
2022/03/30 07:58:49;;;;;;;35.72;19.33;;;11.20;3.90;;;;;;5011595;28;20421;-51
2022/03/30 08:01:16;;;;;;;36.58;19.83;;;11.20;3.00;;;;;;5010838;28;20476;-51
2022/03/30 08:03:44;;;;;;;31.27;18.30;;;11.30;1.00;;;;;;5008906;28;20504;-51
2022/03/30 08:06:10;;;;;;;36.42;19.88;;;11.30;1.00;;;;;;5010383;28;20384;-51
2022/03/30 08:08:36;;;;;;;38.30;18.50;;;11.40;1.00;;;;;;5009723;28;20961;-52
2022/03/30 08:11:02;;;;;;;34.90;19.60;;;11.40;1.00;;;;;;5009331;28;20483;-51
2022/03/30 08:13:27;;;;;;;38.45;18.33;;;11.50;1.00;;;;;;5011163;28;20392;-51
2022/03/30 08:15:53;;;;;;;38.03;19.55;;;11.60;1.00;;;;;;4988424;28;20453;-51
2022/03/30 08:18:18;;;;;;;35.47;19.90;;;11.70;1.00;;;;;;5007628;28;21289;-51
2022/03/30 08:23:28;;;;;;;35.40;18.30;;;11.90;1.00;;;;;;5009426;28;20423;-51
2022/03/30 08:25:54;;;;;;;35.60;19.13;;;12.10;1.00;;;;;;5010888;28;20862;-51
2022/03/30 08:28:20;;;;;;;37.80;19.60;;;12.20;1.00;;;;;;5005558;28;20523;-51
2022/03/30 08:30:45;;;;;;;32.13;18.10;;;12.40;1.00;;;;;;5009490;28;20421;-51
2022/03/30 08:33:11;;;;;;;39.13;18.90;;;12.50;99.90;;;;;;4992706;28;20388;-52
2022/03/30 08:35:37;;;;;;;34.45;20.08;;;12.40;99.90;;;;;;5010398;28;20381;-51
2022/03/30 08:38:03;;;;;;;34.97;21.65;;;12.40;99.90;;;;;;5009536;28;20466;-50
2022/03/30 08:40:28;;;;;;;45.15;24.00;;;12.20;1.00;;;;;;5009928;28;20412;-51
2022/03/30 08:42:55;;;;;;;46.57;25.90;;;12.10;1.00;;;;;;5010015;28;20392;-51
2022/03/30 08:45:21;;;;;;;60.00;30.65;;;12.00;1.00;;;;;;5009860;28;20467;-51
2022/03/30 08:47:47;;;;;;;64.23;33.63;;;12.00;36.60;;;;;;5008630;28;20480;-51
2022/03/30 08:50:13;;;;;;;63.42;34.13;;;11.90;1.00;;;;;;5009199;28;20861;-51
2022/03/30 08:52:38;;;;;;;84.05;40.38;;;11.90;39.50;;;;;;5010246;28;20389;-51
2022/03/30 08:55:05;;;;;;;78.00;40.10;;;12.00;59.00;;;;;;5008805;28;20435;-51
2022/03/30 08:57:30;;;;;;;84.13;43.67;;;12.10;8.00;;;;;;5010087;28;20420;-51
2022/03/30 09:00:09;;;;;;;91.80;43.83;;;12.10;7.10;;;;;;5009541;28;20436;-51
2022/03/30 09:02:44;;;;;;;88.25;47.30;;;12.00;1.00;;;;;;5007416;28;20396;-51
2022/03/30 09:05:24;;;;;;;113.60;55.92;;;12.00;91.10;;;;;;5008996;28;20385;-51
2022/03/30 09:07:54;;;;;;;115.45;60.25;;;12.10;38.70;;;;;;5007962;28;20484;-51
2022/03/30 09:10:28;;;;;;;104.20;52.88;;;12.00;8.70;;;;;;5008237;28;20381;-51
2022/03/30 09:12:56;;;;;;;93.72;45.90;;;12.00;17.00;;;;;;5010265;28;20423;-51
2022/03/30 09:15:22;;;;;;;73.32;40.13;;;12.00;49.90;;;;;;5007814;28;20405;-51
2022/03/30 09:17:48;;;;;;;68.73;34.87;;;12.10;46.90;;;;;;5009881;28;20428;-52
2022/03/30 09:20:16;;;;;;;59.05;32.85;;;12.20;41.00;;;;;;5008842;28;20460;-51
2022/03/30 09:22:47;;;;;;;56.05;30.05;;;12.20;52.90;;;;;;5009653;28;20507;-53
2022/03/30 09:25:13;;;;;;;51.00;26.50;;;12.20;59.20;;;;;;5009108;28;20389;-51
2022/03/30 09:27:41;;;;;;;50.67;27.45;;;12.20;81.00;;;;;;5009959;28;20400;-53
2022/03/30 09:30:16;;;;;;;51.00;26.17;;;12.40;79.00;;;;;;5009396;28;20390;-52
2022/03/30 09:32:45;;;;;;;52.50;26.42;;;12.50;87.50;;;;;;5010108;28;20389;-53
2022/03/30 09:35:28;;;;;;;46.35;27.23;;;12.50;32.00;;;;;;5009413;28;20381;-52
2022/03/30 09:38:16;;;;;;;49.47;28.42;;;12.60;1.00;;;;;;5009976;28;20397;-52
2022/03/30 09:40:47;;;;;;;38.25;20.52;;;12.50;1.00;;;;;;4988726;28;20407;-52
2022/03/30 09:43:17;;;;;;;35.33;18.25;;;12.40;1.00;;;;;;4998544;28;20405;-52
2022/03/30 09:45:44;;;;;;;36.57;17.10;;;12.40;1.00;;;;;;5009540;28;20425;-51
2022/03/30 09:48:11;;;;;;;32.85;14.52;;;12.40;64.70;;;;;;5008133;28;20414;-52
2022/03/30 09:50:45;;;;;;;25.35;12.90;;;12.30;99.90;;;;;;5009545;28;20456;-52
2022/03/30 09:53:13;;;;;;;21.95;12.30;;;12.30;99.90;;;;;;5008202;28;20917;-51
2022/03/30 09:55:52;;;;;;;25.85;12.00;;;12.10;99.90;;;;;;5005848;28;20427;-52
2022/03/30 09:58:20;;;;;;;26.10;12.50;;;12.00;99.90;;;;;;5007106;28;20432;-51
2022/03/30 10:01:05;;;;;;;26.90;12.73;;;11.90;99.90;;;;;;5006488;28;20504;-52
2022/03/30 10:03:54;;;;;;;32.37;13.57;;;11.80;99.90;;;;;;5008474;28;20778;-51
2022/03/30 10:06:22;;;;;;;26.80;13.48;;;11.80;99.90;;;;;;4989105;28;20432;-51
2022/03/30 10:08:50;;;;;;;28.30;12.77;;;11.70;99.90;;;;;;5009034;28;20399;-51
2022/03/30 10:11:17;;;;;;;28.05;13.05;;;11.70;99.90;;;;;;5007281;28;20495;-52
2022/03/30 10:13:48;;;;;;;29.90;14.73;;;11.70;99.90;;;;;;5008669;28;20384;-52
2022/03/30 10:16:14;;;;;;;27.00;14.02;;;11.70;99.90;;;;;;5007861;28;20385;-51
2022/03/30 10:18:40;;;;;;;27.33;12.88;;;11.80;99.90;;;;;;4991152;28;20949;-52
2022/03/30 10:21:46;;;;;;;28.10;13.80;;;11.80;99.90;;;;;;4989812;28;20512;-52
2022/03/30 10:24:22;;;;;;;26.17;12.27;;;12.00;99.90;;;;;;5007745;28;20424;-51
2022/03/30 10:27:04;;;;;;;22.77;12.40;;;12.00;99.90;;;;;;5006172;28;20413;-51
2022/03/30 10:29:31;;;;;;;26.40;13.00;;;12.10;99.90;;;;;;5006341;28;20876;-51
2022/03/30 10:32:27;;;;;;;25.27;12.50;;;12.30;99.90;;;;;;5006181;28;20423;-51
2022/03/30 10:35:02;;;;;;;22.15;12.85;;;12.10;99.90;;;;;;5011360;28;20396;-52
2022/03/30 10:37:38;;;;;;;24.02;12.25;;;12.20;99.90;;;;;;5003732;28;21361;-51
2022/03/30 10:40:04;;;;;;;26.50;12.27;;;12.30;99.90;;;;;;5009092;28;20443;-51
2022/03/30 10:42:57;;;;;;;24.15;12.60;;;12.50;99.90;;;;;;5009706;28;20409;-52
2022/03/30 10:45:42;;;;;;;30.17;11.40;;;12.40;99.90;;;;;;4999811;28;20411;-51
2022/03/30 10:48:29;;;;;;;24.80;11.13;;;12.10;99.90;;;;;;5005923;28;20829;-51
2022/03/30 10:51:10;;;;;;;22.50;11.40;;;12.10;99.90;;;;;;5010261;28;20404;-51
2022/03/30 10:53:47;;;;;;;21.23;10.02;;;12.10;99.90;;;;;;5004880;28;20458;-51
2022/03/30 10:56:21;;;;;;;25.90;10.73;;;12.20;99.90;;;;;;5006576;28;20405;-51
2022/03/30 10:58:52;;;;;;;21.15;9.23;;;12.10;99.90;;;;;;5007876;28;20868;-52
2022/03/30 11:01:30;;;;;;;25.00;10.43;;;11.90;99.90;;;;;;5011671;28;20451;-51
2022/03/30 11:04:02;;;;;;;19.08;10.00;;;12.00;99.90;;;;;;5011289;28;20418;-51
2022/03/30 11:06:29;;;;;;;23.40;10.00;;;12.20;99.90;;;;;;5006153;28;20452;-52
2022/03/30 11:08:55;;;;;;;23.23;9.85;;;12.30;99.90;;;;;;5006406;28;20420;-51
2022/03/30 11:11:30;;;;;;;20.92;10.05;;;12.20;99.90;;;;;;4997906;28;20430;-51
2022/03/30 11:14:36;;;;;;;17.98;9.18;;;12.20;99.90;;;;;;5011640;28;20397;-51
2022/03/30 11:17:06;;;;;;;22.10;9.52;;;12.20;99.90;;;;;;4910805;29;20448;-51
2022/03/30 11:19:46;;;;;;;22.30;9.70;;;12.20;99.90;;;;;;4913561;29;20532;-51
2022/03/30 11:22:13;;;;;;;20.85;8.75;;;12.20;99.90;;;;;;4972813;28;20463;-51
2022/03/30 11:24:42;;;;;;;22.05;9.90;;;11.90;99.90;;;;;;5010531;28;20479;-51
2022/03/30 11:27:08;;;;;;;20.13;10.00;;;11.90;99.90;;;;;;5008077;28;20427;-51
2022/03/30 11:29:49;;;;;;;17.85;9.00;;;12.00;99.90;;;;;;4993201;28;20420;-51
2022/03/30 11:32:24;;;;;;;24.35;10.50;;;12.10;99.90;;;;;;5007471;28;20388;-52
2022/03/30 11:34:57;;;;;;;22.77;9.80;;;12.30;99.90;;;;;;4992914;28;20496;-52
2022/03/30 11:37:35;;;;;;;20.65;9.63;;;12.60;99.90;;;;;;5009505;28;20858;-52
2022/03/30 11:40:20;;;;;;;16.77;8.73;;;12.70;99.90;;;;;;5008875;28;20531;-51
2022/03/30 11:42:50;;;;;;;20.60;9.05;;;12.80;99.90;;;;;;5009149;28;20393;-51
2022/03/30 11:45:20;;;;;;;23.27;10.20;;;12.80;99.90;;;;;;5009494;28;20397;-51
2022/03/30 11:47:52;;;;;;;18.63;8.90;;;12.80;99.90;;;;;;4992928;28;20493;-52
2022/03/30 11:50:24;;;;;;;24.02;9.98;;;12.60;99.90;;;;;;5005136;28;20549;-51
2022/03/30 11:53:01;;;;;;;20.58;9.43;;;12.60;99.90;;;;;;4990591;28;20886;-52
2022/03/30 11:55:29;;;;;;;20.88;9.20;;;12.60;99.90;;;;;;5008821;28;20435;-52
2022/03/30 11:57:57;;;;;;;17.93;9.50;;;12.60;99.90;;;;;;5003781;28;20416;-51
2022/03/30 12:00:26;;;;;;;20.70;9.67;;;12.70;99.90;;;;;;5001957;28;20424;-51
2022/03/30 12:02:55;;;;;;;21.03;9.30;;;12.70;99.90;;;;;;5008781;28;20408;-52
2022/03/30 12:05:22;;;;;;;23.50;9.40;;;12.70;99.90;;;;;;5005391;28;20420;-51
2022/03/30 12:07:53;;;;;;;26.50;10.52;;;12.70;99.90;;;;;;5002613;28;20425;-51
2022/03/30 12:10:18;;;;;;;20.70;11.75;;;12.60;99.90;;;;;;5004840;28;20380;-52
2022/03/30 12:12:44;;;;;;;16.77;10.30;;;12.40;99.90;;;;;;4997255;28;20434;-51
2022/03/30 12:15:17;;;;;;;18.93;11.20;;;11.80;99.90;;;;;;5002693;28;20925;-51
2022/03/30 12:17:49;;;;;;;19.60;12.02;;;11.30;99.90;;;;;;5003047;28;20397;-53
2022/03/30 12:20:25;;;;;;;18.92;11.43;;;11.00;99.90;;;;;;5008882;28;20459;-53
2022/03/30 12:22:58;;;;;;;18.37;11.10;;;10.80;99.90;;;;;;4947769;28;1809094;-54
2022/03/30 12:25:36;;;;;;;18.65;11.27;;;11.60;99.90;;;;;;5011476;28;20389;-53
2022/03/30 12:28:03;;;;;;;16.15;10.00;;;10.70;99.90;;;;;;5010602;28;20400;-53
2022/03/30 12:30:32;;;;;;;15.95;10.18;;;10.60;99.90;;;;;;5011369;28;20475;-54
2022/03/30 12:32:58;;;;;;;15.48;9.70;;;10.60;99.90;;;;;;5011067;28;20388;-53
2022/03/30 12:35:28;;;;;;;15.88;8.95;;;10.50;99.90;;;;;;5010560;28;20459;-54
2022/03/30 12:38:07;;;;;;;15.55;9.50;;;10.50;99.90;;;;;;5010978;28;20381;-54
2022/03/30 12:40:35;;;;;;;14.82;8.70;;;10.50;99.90;;;;;;5011234;28;20409;-53
2022/03/30 12:43:01;;;;;;;16.15;9.80;;;10.60;99.90;;;;;;4992499;28;20415;-53
2022/03/30 12:45:27;;;;;;;16.75;9.40;;;10.70;99.90;;;;;;5011018;28;20381;-54
2022/03/30 12:47:55;;;;;;;17.37;10.03;;;10.60;99.90;;;;;;5002035;28;20461;-54
2022/03/30 12:50:33;;;;;;;15.40;10.30;;;10.50;99.90;;;;;;5007444;28;20401;-54